Irenes Respect — V7LP2 — position and weather

sailwx.info

Track history (hours):
 
Tides and Currents Weather Stations Pressure Air Temp Water Temp Dewpoint Dewpoint Depression Visibility Wind Speed Wind Dir Waves Ship Positions

Irenes Respect

Last reported at 2017-Dec-03 04:39 UTC. Time now 2017-Dec-12 15:59 UTC.
Position N 21°43' E 116°50'.
Warning: this ship's position is 9 days out of date.

Length 222 m; draft 10.4 m.

Type: Cargo ship. MMSI: 538007005.

Date/timePositionNaut miles runAvg speedWind from/ knotsBaromVisibWave heightAir tempDewpointWater temp
2017-Dec-03 04:39N 21°43' E 116°50'319.6
2017-Dec-03 04:29N 21°46' E 116°51'63718.1
2017-Dec-01 17:17N 31°05' E 122°31'413.9
2017-Dec-01 17:00N 31°06' E 122°27'713.8
2017-Dec-01 16:30N 31°06' E 122°19'814.9
2017-Dec-01 15:59N 31°10' E 122°11'714.9
2017-Dec-01 15:30N 31°14' E 122°04'714.5
2017-Dec-01 15:00N 31°15' E 121°55'713.6
2017-Dec-01 14:30N 31°17' E 121°48'8 3.7
2017-Dec-01 12:26N 31°20' E 121°40'0 0.0
2017-Dec-01 10:08N 31°20' E 121°40'0 0.0
2017-Dec-01 09:56N 31°20' E 121°40'0 0.0
2017-Dec-01 09:26N 31°20' E 121°40'0 0.0
2017-Dec-01 01:20N 31°20' E 121°40'0 0.0
2017-Dec-01 00:44N 31°20' E 121°40'0 0.0
2017-Nov-30 23:32N 31°20' E 121°40'0 0.0
2017-Nov-30 23:14N 31°20' E 121°40'0 0.0
2017-Nov-30 22:56N 31°20' E 121°40'0 0.0
2017-Nov-30 22:26N 31°20' E 121°40'0 0.0
2017-Nov-30 18:08N 31°20' E 121°40'0 0.0
2017-Nov-30 14:14N 31°20' E 121°40'0 0.0
2017-Nov-30 13:52N 31°20' E 121°40'2 2.2
2017-Nov-30 12:59N 31°20' E 121°42'5 8.8
2017-Nov-30 12:26N 31°18' E 121°47'510.9
2017-Nov-30 11:57N 31°16' E 121°53'510.4
2017-Nov-30 11:29N 31°15' E 121°58'5 9.5
2017-Nov-30 11:00N 31°14' E 122°04'14 9.3
2017-Nov-30 09:32N 31°07' E 122°17'1 7.7
2017-Nov-30 09:27N 31°07' E 122°18'4 8.6
2017-Nov-30 08:58N 31°06' E 122°23'  
Track history (hours):
 
Tides and Currents Weather Stations Pressure Air Temp Water Temp Dewpoint Dewpoint Depression Visibility Wind Speed Wind Dir Waves Ship Positions

Irenes Respect

Last reported at 2017-Dec-03 04:39 UTC. Time now 2017-Dec-12 15:59 UTC.
Position N 21°43' E 116°50'.
Warning: this ship's position is 9 days out of date.

Length 222 m; draft 10.4 m.

Type: Cargo ship. MMSI: 538007005.

Date/timePositionNaut miles runAvg speedWind from/ knotsBaromVisibWave heightAir tempDewpointWater temp
2017-Dec-03 04:39N 21°43' E 116°50'319.6
2017-Dec-03 04:29N 21°46' E 116°51'63718.1
2017-Dec-01 17:17N 31°05' E 122°31'413.9
2017-Dec-01 17:00N 31°06' E 122°27'713.8
2017-Dec-01 16:30N 31°06' E 122°19'814.9
2017-Dec-01 15:59N 31°10' E 122°11'714.9
2017-Dec-01 15:30N 31°14' E 122°04'714.5
2017-Dec-01 15:00N 31°15' E 121°55'713.6
2017-Dec-01 14:30N 31°17' E 121°48'8 3.7
2017-Dec-01 12:26N 31°20' E 121°40'0 0.0
2017-Dec-01 10:08N 31°20' E 121°40'0 0.0
2017-Dec-01 09:56N 31°20' E 121°40'0 0.0
2017-Dec-01 09:26N 31°20' E 121°40'0 0.0
2017-Dec-01 01:20N 31°20' E 121°40'0 0.0
2017-Dec-01 00:44N 31°20' E 121°40'0 0.0
2017-Nov-30 23:32N 31°20' E 121°40'0 0.0
2017-Nov-30 23:14N 31°20' E 121°40'0 0.0
2017-Nov-30 22:56N 31°20' E 121°40'0 0.0
2017-Nov-30 22:26N 31°20' E 121°40'0 0.0
2017-Nov-30 18:08N 31°20' E 121°40'0 0.0
2017-Nov-30 14:14N 31°20' E 121°40'0 0.0
2017-Nov-30 13:52N 31°20' E 121°40'2 2.2
2017-Nov-30 12:59N 31°20' E 121°42'5 8.8
2017-Nov-30 12:26N 31°18' E 121°47'510.9
2017-Nov-30 11:57N 31°16' E 121°53'510.4
2017-Nov-30 11:29N 31°15' E 121°58'5 9.5
2017-Nov-30 11:00N 31°14' E 122°04'14 9.3
2017-Nov-30 09:32N 31°07' E 122°17'1 7.7
2017-Nov-30 09:27N 31°07' E 122°18'4 8.6
2017-Nov-30 08:58N 31°06' E 122°23'  

Dump ship's entire track history